sensor_id;sensor_type;location;lat;lon;timestamp;temperature;humidity
46336;DHT22;31365;48.858;8.530;2022-12-05T00:02:11;4.30;99.90
46336;DHT22;31365;48.858;8.530;2022-12-05T00:04:40;4.20;99.90
46336;DHT22;31365;48.858;8.530;2022-12-05T00:07:09;4.30;99.90
46336;DHT22;31365;48.858;8.530;2022-12-05T00:09:39;4.20;99.90
46336;DHT22;31365;48.858;8.530;2022-12-05T00:12:07;4.30;99.90
46336;DHT22;31365;48.858;8.530;2022-12-05T00:14:37;4.30;99.90
46336;DHT22;31365;48.858;8.530;2022-12-05T00:17:05;4.30;99.90
46336;DHT22;31365;48.858;8.530;2022-12-05T00:19:34;4.30;99.90
46336;DHT22;31365;48.858;8.530;2022-12-05T00:22:02;4.20;99.90
46336;DHT22;31365;48.858;8.530;2022-12-05T00:24:31;4.20;99.90
46336;DHT22;31365;48.858;8.530;2022-12-05T00:26:59;4.20;99.90
46336;DHT22;31365;48.858;8.530;2022-12-05T00:29:28;4.20;99.90
46336;DHT22;31365;48.858;8.530;2022-12-05T00:31:57;4.20;99.90
46336;DHT22;31365;48.858;8.530;2022-12-05T00:34:25;4.20;99.90
46336;DHT22;31365;48.858;8.530;2022-12-05T00:36:54;4.20;99.90
46336;DHT22;31365;48.858;8.530;2022-12-05T00:39:22;4.20;99.90
46336;DHT22;31365;48.858;8.530;2022-12-05T00:45:15;4.30;99.90
46336;DHT22;31365;48.858;8.530;2022-12-05T00:47:45;4.20;99.90
46336;DHT22;31365;48.858;8.530;2022-12-05T00:50:13;4.20;99.90
46336;DHT22;31365;48.858;8.530;2022-12-05T00:52:41;4.20;99.90
46336;DHT22;31365;48.858;8.530;2022-12-05T00:55:09;4.30;99.90
46336;DHT22;31365;48.858;8.530;2022-12-05T00:57:38;4.30;99.90
46336;DHT22;31365;48.858;8.530;2022-12-05T01:00:07;4.30;99.90
46336;DHT22;31365;48.858;8.530;2022-12-05T01:02:36;4.30;99.90
46336;DHT22;31365;48.858;8.530;2022-12-05T01:05:06;4.30;99.90
46336;DHT22;31365;48.858;8.530;2022-12-05T01:07:36;4.30;99.90
46336;DHT22;31365;48.858;8.530;2022-12-05T01:10:05;4.30;99.90
46336;DHT22;31365;48.858;8.530;2022-12-05T01:12:34;4.40;99.90
46336;DHT22;31365;48.858;8.530;2022-12-05T01:15:04;4.30;99.90
46336;DHT22;31365;48.858;8.530;2022-12-05T01:17:33;4.30;99.90
46336;DHT22;31365;48.858;8.530;2022-12-05T01:20:01;4.30;99.90
46336;DHT22;31365;48.858;8.530;2022-12-05T01:22:32;4.40;99.90
46336;DHT22;31365;48.858;8.530;2022-12-05T01:25:01;4.40;99.90
46336;DHT22;31365;48.858;8.530;2022-12-05T01:27:29;4.40;99.90
46336;DHT22;31365;48.858;8.530;2022-12-05T01:29:57;4.60;99.90
46336;DHT22;31365;48.858;8.530;2022-12-05T01:32:26;4.50;99.90
46336;DHT22;31365;48.858;8.530;2022-12-05T01:34:54;4.40;99.90
46336;DHT22;31365;48.858;8.530;2022-12-05T01:37:22;4.50;99.90
46336;DHT22;31365;48.858;8.530;2022-12-05T01:39:52;4.50;99.90
46336;DHT22;31365;48.858;8.530;2022-12-05T01:42:21;4.40;99.90
46336;DHT22;31365;48.858;8.530;2022-12-05T01:45:01;4.40;99.90
46336;DHT22;31365;48.858;8.530;2022-12-05T01:47:35;4.40;99.90
46336;DHT22;31365;48.858;8.530;2022-12-05T01:50:05;4.30;99.90
46336;DHT22;31365;48.858;8.530;2022-12-05T01:52:35;4.30;99.90
46336;DHT22;31365;48.858;8.530;2022-12-05T01:55:09;4.30;99.90
46336;DHT22;31365;48.858;8.530;2022-12-05T01:57:40;4.40;99.90
46336;DHT22;31365;48.858;8.530;2022-12-05T02:00:12;4.40;99.90
46336;DHT22;31365;48.858;8.530;2022-12-05T02:02:45;4.30;99.90
46336;DHT22;31365;48.858;8.530;2022-12-05T02:05:20;4.40;99.90
46336;DHT22;31365;48.858;8.530;2022-12-05T02:07:50;4.40;99.90
46336;DHT22;31365;48.858;8.530;2022-12-05T02:10:21;4.30;99.90
46336;DHT22;31365;48.858;8.530;2022-12-05T02:12:50;4.40;99.90
46336;DHT22;31365;48.858;8.530;2022-12-05T02:15:34;4.30;99.90
46336;DHT22;31365;48.858;8.530;2022-12-05T02:18:26;4.30;99.90
46336;DHT22;31365;48.858;8.530;2022-12-05T02:27:35;4.40;99.90
46336;DHT22;31365;48.858;8.530;2022-12-05T02:30:15;4.50;99.90
46336;DHT22;31365;48.858;8.530;2022-12-05T02:32:59;4.50;99.90
46336;DHT22;31365;48.858;8.530;2022-12-05T02:35:40;4.50;99.90
46336;DHT22;31365;48.858;8.530;2022-12-05T02:38:25;4.50;99.90
46336;DHT22;31365;48.858;8.530;2022-12-05T02:41:06;4.50;99.90
46336;DHT22;31365;48.858;8.530;2022-12-05T02:43:50;4.50;99.90
46336;DHT22;31365;48.858;8.530;2022-12-05T02:46:26;4.50;99.90
46336;DHT22;31365;48.858;8.530;2022-12-05T02:48:59;4.40;99.90
46336;DHT22;31365;48.858;8.530;2022-12-05T02:51:33;4.50;99.90
46336;DHT22;31365;48.858;8.530;2022-12-05T02:54:08;4.50;99.90
46336;DHT22;31365;48.858;8.530;2022-12-05T02:56:41;4.50;99.90
46336;DHT22;31365;48.858;8.530;2022-12-05T02:59:12;4.50;99.90
46336;DHT22;31365;48.858;8.530;2022-12-05T03:01:50;4.60;99.90
46336;DHT22;31365;48.858;8.530;2022-12-05T03:04:23;4.60;99.90
46336;DHT22;31365;48.858;8.530;2022-12-05T03:06:56;4.60;99.90
46336;DHT22;31365;48.858;8.530;2022-12-05T03:09:31;4.60;99.90
46336;DHT22;31365;48.858;8.530;2022-12-05T03:12:07;4.60;99.90
46336;DHT22;31365;48.858;8.530;2022-12-05T03:14:42;4.60;99.90
46336;DHT22;31365;48.858;8.530;2022-12-05T03:17:22;4.60;99.90
46336;DHT22;31365;48.858;8.530;2022-12-05T03:19:58;4.60;99.90
46336;DHT22;31365;48.858;8.530;2022-12-05T03:22:36;4.60;99.90
46336;DHT22;31365;48.858;8.530;2022-12-05T03:25:11;4.60;99.90
46336;DHT22;31365;48.858;8.530;2022-12-05T03:27:46;4.60;99.90
46336;DHT22;31365;48.858;8.530;2022-12-05T03:30:21;4.60;99.90
46336;DHT22;31365;48.858;8.530;2022-12-05T03:32:58;4.60;99.90
46336;DHT22;31365;48.858;8.530;2022-12-05T03:35:36;4.50;99.90
46336;DHT22;31365;48.858;8.530;2022-12-05T03:38:13;4.50;99.90
46336;DHT22;31365;48.858;8.530;2022-12-05T03:40:47;4.40;99.90
46336;DHT22;31365;48.858;8.530;2022-12-05T03:43:24;4.40;99.90
46336;DHT22;31365;48.858;8.530;2022-12-05T03:46:05;4.40;99.90
46336;DHT22;31365;48.858;8.530;2022-12-05T03:48:46;4.40;99.90
46336;DHT22;31365;48.858;8.530;2022-12-05T03:51:25;4.40;99.90
46336;DHT22;31365;48.858;8.530;2022-12-05T03:54:04;4.40;99.90
46336;DHT22;31365;48.858;8.530;2022-12-05T03:56:42;4.40;99.90
46336;DHT22;31365;48.858;8.530;2022-12-05T03:59:17;4.40;99.90
46336;DHT22;31365;48.858;8.530;2022-12-05T04:01:57;4.50;99.90
46336;DHT22;31365;48.858;8.530;2022-12-05T04:04:33;4.50;99.90
46336;DHT22;31365;48.858;8.530;2022-12-05T04:07:06;4.50;99.90
46336;DHT22;31365;48.858;8.530;2022-12-05T04:09:39;4.50;99.90
46336;DHT22;31365;48.858;8.530;2022-12-05T04:12:16;4.50;99.90
46336;DHT22;31365;48.858;8.530;2022-12-05T04:14:51;4.50;99.90
46336;DHT22;31365;48.858;8.530;2022-12-05T04:17:29;4.40;99.90
46336;DHT22;31365;48.858;8.530;2022-12-05T04:20:08;4.50;99.90
46336;DHT22;31365;48.858;8.530;2022-12-05T04:22:57;4.50;99.90
46336;DHT22;31365;48.858;8.530;2022-12-05T04:25:32;4.50;99.90
46336;DHT22;31365;48.858;8.530;2022-12-05T04:28:17;4.50;99.90
46336;DHT22;31365;48.858;8.530;2022-12-05T04:31:00;4.50;99.90
46336;DHT22;31365;48.858;8.530;2022-12-05T04:33:38;4.50;99.90
46336;DHT22;31365;48.858;8.530;2022-12-05T04:36:14;4.50;99.90
46336;DHT22;31365;48.858;8.530;2022-12-05T04:38:49;4.50;99.90
46336;DHT22;31365;48.858;8.530;2022-12-05T04:41:23;4.50;99.90
46336;DHT22;31365;48.858;8.530;2022-12-05T04:43:59;4.60;99.90
46336;DHT22;31365;48.858;8.530;2022-12-05T04:46:28;4.50;99.90
46336;DHT22;31365;48.858;8.530;2022-12-05T04:49:00;4.50;99.90
46336;DHT22;31365;48.858;8.530;2022-12-05T04:51:34;4.50;99.90
46336;DHT22;31365;48.858;8.530;2022-12-05T04:54:12;4.50;99.90
46336;DHT22;31365;48.858;8.530;2022-12-05T04:56:46;4.50;99.90
46336;DHT22;31365;48.858;8.530;2022-12-05T04:59:23;4.50;99.90
46336;DHT22;31365;48.858;8.530;2022-12-05T05:01:55;4.50;99.90
46336;DHT22;31365;48.858;8.530;2022-12-05T05:04:33;4.60;99.90
46336;DHT22;31365;48.858;8.530;2022-12-05T05:07:07;4.50;99.90
46336;DHT22;31365;48.858;8.530;2022-12-05T05:09:37;4.50;99.90
46336;DHT22;31365;48.858;8.530;2022-12-05T05:12:06;4.60;99.90
46336;DHT22;31365;48.858;8.530;2022-12-05T05:14:44;4.50;99.90
46336;DHT22;31365;48.858;8.530;2022-12-05T05:17:13;4.50;99.90
46336;DHT22;31365;48.858;8.530;2022-12-05T05:19:41;4.50;99.90
46336;DHT22;31365;48.858;8.530;2022-12-05T05:22:12;4.50;99.90
46336;DHT22;31365;48.858;8.530;2022-12-05T05:24:40;4.60;99.90
46336;DHT22;31365;48.858;8.530;2022-12-05T05:27:08;4.60;99.90
46336;DHT22;31365;48.858;8.530;2022-12-05T05:29:37;4.50;99.90
46336;DHT22;31365;48.858;8.530;2022-12-05T05:32:05;4.50;99.90
46336;DHT22;31365;48.858;8.530;2022-12-05T05:34:34;4.50;99.90
46336;DHT22;31365;48.858;8.530;2022-12-05T05:37:02;4.50;99.90
46336;DHT22;31365;48.858;8.530;2022-12-05T05:39:33;4.50;99.90
46336;DHT22;31365;48.858;8.530;2022-12-05T05:42:01;4.40;99.90
46336;DHT22;31365;48.858;8.530;2022-12-05T05:44:30;4.40;99.90
46336;DHT22;31365;48.858;8.530;2022-12-05T05:46:59;4.50;99.90
46336;DHT22;31365;48.858;8.530;2022-12-05T05:49:27;4.40;99.90
46336;DHT22;31365;48.858;8.530;2022-12-05T05:51:56;4.40;99.90
46336;DHT22;31365;48.858;8.530;2022-12-05T05:54:26;4.40;99.90
46336;DHT22;31365;48.858;8.530;2022-12-05T05:56:56;4.50;99.90
46336;DHT22;31365;48.858;8.530;2022-12-05T05:59:24;4.50;99.90
46336;DHT22;31365;48.858;8.530;2022-12-05T06:01:53;4.50;99.90
46336;DHT22;31365;48.858;8.530;2022-12-05T06:04:21;4.40;99.90
46336;DHT22;31365;48.858;8.530;2022-12-05T06:06:50;4.40;99.90
46336;DHT22;31365;48.858;8.530;2022-12-05T06:09:18;4.40;99.90
46336;DHT22;31365;48.858;8.530;2022-12-05T06:11:46;4.40;99.90
46336;DHT22;31365;48.858;8.530;2022-12-05T06:14:16;4.50;99.90
46336;DHT22;31365;48.858;8.530;2022-12-05T06:16:44;4.50;99.90
46336;DHT22;31365;48.858;8.530;2022-12-05T06:19:13;4.40;99.90
46336;DHT22;31365;48.858;8.530;2022-12-05T06:21:41;4.40;99.90
46336;DHT22;31365;48.858;8.530;2022-12-05T06:24:10;4.40;99.90
46336;DHT22;31365;48.858;8.530;2022-12-05T06:26:38;4.30;99.90
46336;DHT22;31365;48.858;8.530;2022-12-05T06:29:06;4.30;99.90
46336;DHT22;31365;48.858;8.530;2022-12-05T06:31:36;4.40;99.90
46336;DHT22;31365;48.858;8.530;2022-12-05T06:34:05;4.40;99.90
46336;DHT22;31365;48.858;8.530;2022-12-05T06:36:33;4.30;99.90
46336;DHT22;31365;48.858;8.530;2022-12-05T06:39:01;4.30;99.90
46336;DHT22;31365;48.858;8.530;2022-12-05T06:41:31;4.30;99.90
46336;DHT22;31365;48.858;8.530;2022-12-05T06:43:59;4.30;99.90
46336;DHT22;31365;48.858;8.530;2022-12-05T06:46:29;4.20;99.90
46336;DHT22;31365;48.858;8.530;2022-12-05T06:48:59;4.20;99.90
46336;DHT22;31365;48.858;8.530;2022-12-05T06:51:27;4.20;99.90
46336;DHT22;31365;48.858;8.530;2022-12-05T06:53:56;4.10;99.90
46336;DHT22;31365;48.858;8.530;2022-12-05T06:56:25;4.00;99.90
46336;DHT22;31365;48.858;8.530;2022-12-05T06:58:54;4.00;99.90
46336;DHT22;31365;48.858;8.530;2022-12-05T07:01:23;4.00;99.90
46336;DHT22;31365;48.858;8.530;2022-12-05T07:04:12;4.00;99.90
46336;DHT22;31365;48.858;8.530;2022-12-05T07:06:43;4.00;99.90
46336;DHT22;31365;48.858;8.530;2022-12-05T07:09:17;4.00;99.90
46336;DHT22;31365;48.858;8.530;2022-12-05T07:11:48;4.10;99.90
46336;DHT22;31365;48.858;8.530;2022-12-05T07:14:17;4.10;99.90
46336;DHT22;31365;48.858;8.530;2022-12-05T07:17:06;4.20;99.90
46336;DHT22;31365;48.858;8.530;2022-12-05T07:19:36;4.20;99.90
46336;DHT22;31365;48.858;8.530;2022-12-05T07:22:05;4.20;99.90
46336;DHT22;31365;48.858;8.530;2022-12-05T07:24:41;4.20;99.90
46336;DHT22;31365;48.858;8.530;2022-12-05T07:27:10;4.20;99.90
46336;DHT22;31365;48.858;8.530;2022-12-05T07:29:39;4.30;99.90
46336;DHT22;31365;48.858;8.530;2022-12-05T07:32:07;4.30;99.90
46336;DHT22;31365;48.858;8.530;2022-12-05T07:34:37;4.30;99.90
46336;DHT22;31365;48.858;8.530;2022-12-05T07:37:06;4.30;99.90
46336;DHT22;31365;48.858;8.530;2022-12-05T07:39:34;4.30;99.90
46336;DHT22;31365;48.858;8.530;2022-12-05T07:42:03;4.30;99.90
46336;DHT22;31365;48.858;8.530;2022-12-05T07:44:32;4.30;99.90
46336;DHT22;31365;48.858;8.530;2022-12-05T07:47:01;4.40;99.90
46336;DHT22;31365;48.858;8.530;2022-12-05T07:49:29;4.30;99.90
46336;DHT22;31365;48.858;8.530;2022-12-05T07:52:00;4.30;99.90
46336;DHT22;31365;48.858;8.530;2022-12-05T07:54:28;4.40;99.90
46336;DHT22;31365;48.858;8.530;2022-12-05T07:56:57;4.40;99.90
46336;DHT22;31365;48.858;8.530;2022-12-05T07:59:25;4.40;99.90
46336;DHT22;31365;48.858;8.530;2022-12-05T08:01:54;4.40;99.90
46336;DHT22;31365;48.858;8.530;2022-12-05T08:04:22;4.50;99.90
46336;DHT22;31365;48.858;8.530;2022-12-05T08:06:50;4.50;99.90
46336;DHT22;31365;48.858;8.530;2022-12-05T08:09:20;4.50;99.90
46336;DHT22;31365;48.858;8.530;2022-12-05T08:11:49;4.60;99.90
46336;DHT22;31365;48.858;8.530;2022-12-05T08:14:19;4.60;99.90
46336;DHT22;31365;48.858;8.530;2022-12-05T08:16:47;4.60;99.90
46336;DHT22;31365;48.858;8.530;2022-12-05T08:19:16;4.60;99.90
46336;DHT22;31365;48.858;8.530;2022-12-05T08:21:46;4.60;99.90
46336;DHT22;31365;48.858;8.530;2022-12-05T08:24:14;4.70;99.90
46336;DHT22;31365;48.858;8.530;2022-12-05T08:26:44;4.80;99.90
46336;DHT22;31365;48.858;8.530;2022-12-05T08:29:14;4.80;99.90
46336;DHT22;31365;48.858;8.530;2022-12-05T08:31:45;4.90;99.90
46336;DHT22;31365;48.858;8.530;2022-12-05T08:34:16;4.90;99.90
46336;DHT22;31365;48.858;8.530;2022-12-05T08:36:48;5.00;99.90
46336;DHT22;31365;48.858;8.530;2022-12-05T08:39:18;5.00;99.90
46336;DHT22;31365;48.858;8.530;2022-12-05T08:41:48;5.10;99.90
46336;DHT22;31365;48.858;8.530;2022-12-05T08:44:17;5.10;99.90
46336;DHT22;31365;48.858;8.530;2022-12-05T08:46:46;5.10;99.90
46336;DHT22;31365;48.858;8.530;2022-12-05T08:49:16;5.20;99.90
46336;DHT22;31365;48.858;8.530;2022-12-05T08:51:45;5.20;99.90
46336;DHT22;31365;48.858;8.530;2022-12-05T08:54:13;5.20;99.90
46336;DHT22;31365;48.858;8.530;2022-12-05T08:56:43;5.30;99.90
46336;DHT22;31365;48.858;8.530;2022-12-05T08:59:12;5.20;99.90
46336;DHT22;31365;48.858;8.530;2022-12-05T09:01:41;5.30;99.90
46336;DHT22;31365;48.858;8.530;2022-12-05T09:04:09;5.30;99.90
46336;DHT22;31365;48.858;8.530;2022-12-05T09:06:39;5.40;99.90
46336;DHT22;31365;48.858;8.530;2022-12-05T09:09:10;5.40;99.90
46336;DHT22;31365;48.858;8.530;2022-12-05T09:11:41;5.50;99.90
46336;DHT22;31365;48.858;8.530;2022-12-05T09:14:16;5.50;99.90
46336;DHT22;31365;48.858;8.530;2022-12-05T09:16:45;5.60;99.90
46336;DHT22;31365;48.858;8.530;2022-12-05T09:19:16;5.70;99.90
46336;DHT22;31365;48.858;8.530;2022-12-05T09:21:53;5.70;99.90
46336;DHT22;31365;48.858;8.530;2022-12-05T09:24:23;5.70;99.90
46336;DHT22;31365;48.858;8.530;2022-12-05T09:26:52;5.80;99.90
46336;DHT22;31365;48.858;8.530;2022-12-05T09:29:21;5.80;99.90
46336;DHT22;31365;48.858;8.530;2022-12-05T09:31:57;5.80;99.90
46336;DHT22;31365;48.858;8.530;2022-12-05T09:34:25;5.80;99.90
46336;DHT22;31365;48.858;8.530;2022-12-05T09:36:54;5.80;99.90
46336;DHT22;31365;48.858;8.530;2022-12-05T09:39:44;5.70;99.90
46336;DHT22;31365;48.858;8.530;2022-12-05T09:42:37;5.70;99.90
46336;DHT22;31365;48.858;8.530;2022-12-05T09:45:17;5.80;99.90
46336;DHT22;31365;48.858;8.530;2022-12-05T09:47:58;5.80;99.90
46336;DHT22;31365;48.858;8.530;2022-12-05T09:50:33;5.80;99.90
46336;DHT22;31365;48.858;8.530;2022-12-05T09:53:15;5.80;99.90
46336;DHT22;31365;48.858;8.530;2022-12-05T09:55:56;5.80;99.90
46336;DHT22;31365;48.858;8.530;2022-12-05T09:58:40;5.80;99.90
46336;DHT22;31365;48.858;8.530;2022-12-05T10:01:24;5.80;99.90
46336;DHT22;31365;48.858;8.530;2022-12-05T10:04:11;5.80;99.90
46336;DHT22;31365;48.858;8.530;2022-12-05T10:06:58;5.90;99.90
46336;DHT22;31365;48.858;8.530;2022-12-05T10:09:58;6.00;99.90
46336;DHT22;31365;48.858;8.530;2022-12-05T10:12:56;6.00;99.90
46336;DHT22;31365;48.858;8.530;2022-12-05T10:15:37;6.00;99.90
46336;DHT22;31365;48.858;8.530;2022-12-05T10:18:23;6.10;99.90
46336;DHT22;31365;48.858;8.530;2022-12-05T10:20:59;6.20;99.90
46336;DHT22;31365;48.858;8.530;2022-12-05T10:23:36;6.40;99.90
46336;DHT22;31365;48.858;8.530;2022-12-05T10:26:29;6.50;99.90
46336;DHT22;31365;48.858;8.530;2022-12-05T10:29:08;6.60;99.90
46336;DHT22;31365;48.858;8.530;2022-12-05T10:31:49;6.60;99.90
46336;DHT22;31365;48.858;8.530;2022-12-05T10:34:30;6.60;99.90
46336;DHT22;31365;48.858;8.530;2022-12-05T10:37:08;6.70;99.90
46336;DHT22;31365;48.858;8.530;2022-12-05T10:39:40;6.70;99.90
46336;DHT22;31365;48.858;8.530;2022-12-05T10:42:12;6.60;99.90
46336;DHT22;31365;48.858;8.530;2022-12-05T10:44:43;6.70;99.90
46336;DHT22;31365;48.858;8.530;2022-12-05T10:47:12;6.60;99.90
46336;DHT22;31365;48.858;8.530;2022-12-05T10:49:42;6.60;99.90
46336;DHT22;31365;48.858;8.530;2022-12-05T10:52:13;6.60;99.90
46336;DHT22;31365;48.858;8.530;2022-12-05T10:54:48;6.50;99.90
46336;DHT22;31365;48.858;8.530;2022-12-05T10:57:21;6.50;99.90
46336;DHT22;31365;48.858;8.530;2022-12-05T10:59:52;6.60;99.90
46336;DHT22;31365;48.858;8.530;2022-12-05T11:02:25;6.70;99.90
46336;DHT22;31365;48.858;8.530;2022-12-05T11:04:57;6.70;99.90
46336;DHT22;31365;48.858;8.530;2022-12-05T11:07:29;6.90;99.90
46336;DHT22;31365;48.858;8.530;2022-12-05T11:10:01;7.10;99.90
46336;DHT22;31365;48.858;8.530;2022-12-05T11:12:54;7.50;99.90
46336;DHT22;31365;48.858;8.530;2022-12-05T11:15:25;7.90;99.90
46336;DHT22;31365;48.858;8.530;2022-12-05T11:17:56;8.10;99.90
46336;DHT22;31365;48.858;8.530;2022-12-05T11:20:41;8.40;99.90
46336;DHT22;31365;48.858;8.530;2022-12-05T11:23:22;8.60;99.90
46336;DHT22;31365;48.858;8.530;2022-12-05T11:25:53;8.80;99.90
46336;DHT22;31365;48.858;8.530;2022-12-05T11:28:34;8.80;99.90
46336;DHT22;31365;48.858;8.530;2022-12-05T11:31:09;8.80;99.90
46336;DHT22;31365;48.858;8.530;2022-12-05T11:34:01;8.70;99.90
46336;DHT22;31365;48.858;8.530;2022-12-05T11:36:41;8.50;99.90
46336;DHT22;31365;48.858;8.530;2022-12-05T11:39:13;8.40;99.90
46336;DHT22;31365;48.858;8.530;2022-12-05T11:41:54;8.30;99.90
46336;DHT22;31365;48.858;8.530;2022-12-05T11:44:51;8.40;99.90
46336;DHT22;31365;48.858;8.530;2022-12-05T11:47:47;8.40;99.90
46336;DHT22;31365;48.858;8.530;2022-12-05T11:50:31;8.30;99.90
46336;DHT22;31365;48.858;8.530;2022-12-05T11:53:15;8.20;99.90
46336;DHT22;31365;48.858;8.530;2022-12-05T11:56:04;8.30;99.90
46336;DHT22;31365;48.858;8.530;2022-12-05T11:58:55;8.20;99.90
46336;DHT22;31365;48.858;8.530;2022-12-05T12:01:45;8.20;99.90
46336;DHT22;31365;48.858;8.530;2022-12-05T12:04:46;8.30;99.90
46336;DHT22;31365;48.858;8.530;2022-12-05T12:07:26;8.30;99.90
46336;DHT22;31365;48.858;8.530;2022-12-05T12:10:13;8.40;99.90
46336;DHT22;31365;48.858;8.530;2022-12-05T12:12:55;8.50;99.90
46336;DHT22;31365;48.858;8.530;2022-12-05T12:15:45;8.50;99.90
46336;DHT22;31365;48.858;8.530;2022-12-05T12:18:36;8.50;99.90
46336;DHT22;31365;48.858;8.530;2022-12-05T12:21:17;8.60;99.90
46336;DHT22;31365;48.858;8.530;2022-12-05T12:33:29;8.30;99.90
46336;DHT22;31365;48.858;8.530;2022-12-05T12:36:11;8.10;99.90
46336;DHT22;31365;48.858;8.530;2022-12-05T12:39:00;8.00;99.90
46336;DHT22;31365;48.858;8.530;2022-12-05T12:41:44;7.90;99.90
46336;DHT22;31365;48.858;8.530;2022-12-05T12:44:51;7.80;99.90
46336;DHT22;31365;48.858;8.530;2022-12-05T12:47:41;7.70;99.90
46336;DHT22;31365;48.858;8.530;2022-12-05T12:50:20;7.70;99.90
46336;DHT22;31365;48.858;8.530;2022-12-05T12:53:03;7.80;99.90
46336;DHT22;31365;48.858;8.530;2022-12-05T12:55:49;7.90;99.90
46336;DHT22;31365;48.858;8.530;2022-12-05T12:58:42;7.90;99.90
46336;DHT22;31365;48.858;8.530;2022-12-05T13:01:23;7.90;99.90
46336;DHT22;31365;48.858;8.530;2022-12-05T13:03:56;8.00;99.90
46336;DHT22;31365;48.858;8.530;2022-12-05T13:06:38;8.00;99.90
46336;DHT22;31365;48.858;8.530;2022-12-05T13:09:14;8.00;99.90
46336;DHT22;31365;48.858;8.530;2022-12-05T13:11:51;7.90;99.90
46336;DHT22;31365;48.858;8.530;2022-12-05T13:14:23;7.90;99.90
46336;DHT22;31365;48.858;8.530;2022-12-05T13:16:54;7.90;99.90
46336;DHT22;31365;48.858;8.530;2022-12-05T13:19:28;7.90;99.90
46336;DHT22;31365;48.858;8.530;2022-12-05T13:22:05;7.90;99.90
46336;DHT22;31365;48.858;8.530;2022-12-05T13:24:35;7.90;99.90
46336;DHT22;31365;48.858;8.530;2022-12-05T13:27:05;8.00;99.90
46336;DHT22;31365;48.858;8.530;2022-12-05T13:29:40;7.90;99.90
46336;DHT22;31365;48.858;8.530;2022-12-05T13:32:25;7.80;99.90
46336;DHT22;31365;48.858;8.530;2022-12-05T13:34:58;7.60;99.90
46336;DHT22;31365;48.858;8.530;2022-12-05T13:37:30;7.60;99.90
46336;DHT22;31365;48.858;8.530;2022-12-05T13:40:30;7.50;99.90
46336;DHT22;31365;48.858;8.530;2022-12-05T13:43:20;7.40;99.90
46336;DHT22;31365;48.858;8.530;2022-12-05T13:45:59;7.40;99.90
46336;DHT22;31365;48.858;8.530;2022-12-05T13:48:34;7.40;99.90
46336;DHT22;31365;48.858;8.530;2022-12-05T13:51:10;7.30;99.90
46336;DHT22;31365;48.858;8.530;2022-12-05T13:53:56;7.30;99.90
46336;DHT22;31365;48.858;8.530;2022-12-05T13:56:47;7.30;99.90
46336;DHT22;31365;48.858;8.530;2022-12-05T14:02:50;7.30;99.90
46336;DHT22;31365;48.858;8.530;2022-12-05T14:05:41;7.20;99.90
46336;DHT22;31365;48.858;8.530;2022-12-05T14:15:29;7.10;99.90
46336;DHT22;31365;48.858;8.530;2022-12-05T14:18:10;7.00;99.90
46336;DHT22;31365;48.858;8.530;2022-12-05T14:21:01;6.80;99.90
46336;DHT22;31365;48.858;8.530;2022-12-05T14:23:47;6.80;99.90
46336;DHT22;31365;48.858;8.530;2022-12-05T14:26:48;6.70;99.90
46336;DHT22;31365;48.858;8.530;2022-12-05T14:29:37;6.70;99.90
46336;DHT22;31365;48.858;8.530;2022-12-05T14:32:21;6.70;99.90
46336;DHT22;31365;48.858;8.530;2022-12-05T14:34:56;6.60;99.90
46336;DHT22;31365;48.858;8.530;2022-12-05T14:37:31;6.60;99.90
46336;DHT22;31365;48.858;8.530;2022-12-05T14:40:14;6.60;99.90
46336;DHT22;31365;48.858;8.530;2022-12-05T14:42:52;6.60;99.90
46336;DHT22;31365;48.858;8.530;2022-12-05T14:45:27;6.60;99.90
46336;DHT22;31365;48.858;8.530;2022-12-05T14:48:00;6.60;99.90
46336;DHT22;31365;48.858;8.530;2022-12-05T14:50:40;6.60;99.90
46336;DHT22;31365;48.858;8.530;2022-12-05T14:53:21;6.50;99.90
46336;DHT22;31365;48.858;8.530;2022-12-05T14:56:01;6.50;99.90
46336;DHT22;31365;48.858;8.530;2022-12-05T14:58:36;6.50;99.90
46336;DHT22;31365;48.858;8.530;2022-12-05T15:01:14;6.50;99.90
46336;DHT22;31365;48.858;8.530;2022-12-05T15:04:05;6.40;99.90
46336;DHT22;31365;48.858;8.530;2022-12-05T15:06:45;6.40;99.90
46336;DHT22;31365;48.858;8.530;2022-12-05T15:09:30;6.40;99.90
46336;DHT22;31365;48.858;8.530;2022-12-05T15:12:12;6.40;99.90
46336;DHT22;31365;48.858;8.530;2022-12-05T15:14:48;6.40;99.90
46336;DHT22;31365;48.858;8.530;2022-12-05T15:17:26;6.40;99.90
46336;DHT22;31365;48.858;8.530;2022-12-05T15:20:03;6.40;99.90
46336;DHT22;31365;48.858;8.530;2022-12-05T15:22:36;6.40;99.90
46336;DHT22;31365;48.858;8.530;2022-12-05T15:25:27;6.30;99.90
46336;DHT22;31365;48.858;8.530;2022-12-05T15:28:04;6.40;99.90
46336;DHT22;31365;48.858;8.530;2022-12-05T15:30:36;6.40;99.90
46336;DHT22;31365;48.858;8.530;2022-12-05T15:33:10;6.30;99.90
46336;DHT22;31365;48.858;8.530;2022-12-05T15:35:46;6.30;99.90
46336;DHT22;31365;48.858;8.530;2022-12-05T15:38:20;6.30;99.90
46336;DHT22;31365;48.858;8.530;2022-12-05T15:40:54;6.30;99.90
46336;DHT22;31365;48.858;8.530;2022-12-05T15:43:28;6.30;99.90
46336;DHT22;31365;48.858;8.530;2022-12-05T15:46:08;6.30;99.90
46336;DHT22;31365;48.858;8.530;2022-12-05T15:48:50;6.30;99.90
46336;DHT22;31365;48.858;8.530;2022-12-05T15:51:20;6.30;99.90
46336;DHT22;31365;48.858;8.530;2022-12-05T15:53:54;6.40;99.90
46336;DHT22;31365;48.858;8.530;2022-12-05T15:56:29;6.40;99.90
46336;DHT22;31365;48.858;8.530;2022-12-05T15:59:07;6.40;99.90
46336;DHT22;31365;48.858;8.530;2022-12-05T16:01:46;6.40;99.90
46336;DHT22;31365;48.858;8.530;2022-12-05T16:04:22;6.40;99.90
46336;DHT22;31365;48.858;8.530;2022-12-05T16:06:58;6.40;99.90
46336;DHT22;31365;48.858;8.530;2022-12-05T16:09:32;6.40;99.90
46336;DHT22;31365;48.858;8.530;2022-12-05T16:12:17;6.40;99.90
46336;DHT22;31365;48.858;8.530;2022-12-05T16:14:53;6.40;99.90
46336;DHT22;31365;48.858;8.530;2022-12-05T16:17:28;6.30;99.90
46336;DHT22;31365;48.858;8.530;2022-12-05T16:20:19;6.30;99.90
46336;DHT22;31365;48.858;8.530;2022-12-05T16:22:53;6.30;99.90
46336;DHT22;31365;48.858;8.530;2022-12-05T16:25:25;6.30;99.90
46336;DHT22;31365;48.858;8.530;2022-12-05T16:28:01;6.30;99.90
46336;DHT22;31365;48.858;8.530;2022-12-05T16:30:52;6.30;99.90
46336;DHT22;31365;48.858;8.530;2022-12-05T16:33:25;6.30;99.90
46336;DHT22;31365;48.858;8.530;2022-12-05T16:36:06;6.30;99.90
46336;DHT22;31365;48.858;8.530;2022-12-05T16:38:36;6.20;99.90
46336;DHT22;31365;48.858;8.530;2022-12-05T16:41:07;6.20;99.90
46336;DHT22;31365;48.858;8.530;2022-12-05T16:43:44;6.20;99.90
46336;DHT22;31365;48.858;8.530;2022-12-05T16:46:44;6.20;99.90
46336;DHT22;31365;48.858;8.530;2022-12-05T16:49:21;6.20;99.90
46336;DHT22;31365;48.858;8.530;2022-12-05T16:52:02;6.20;99.90
46336;DHT22;31365;48.858;8.530;2022-12-05T16:54:40;6.20;99.90
46336;DHT22;31365;48.858;8.530;2022-12-05T16:57:11;6.10;99.90
46336;DHT22;31365;48.858;8.530;2022-12-05T16:59:42;6.20;99.90
46336;DHT22;31365;48.858;8.530;2022-12-05T17:02:16;6.20;99.90
46336;DHT22;31365;48.858;8.530;2022-12-05T17:04:47;6.20;99.90
46336;DHT22;31365;48.858;8.530;2022-12-05T17:07:15;6.10;99.90